Time;durP1;ratioP1;P1;durP2;ratioP2;P2;SDS_P1;SDS_P2;PMS_P1;PMS_P2;Temp;Humidity;BMP_temperature;BMP_pressure;BME280_temperature;BME280_humidity;BME280_pressure;Samples;Min_cycle;Max_cycle;Signal;HPM_P1;HPM_P2
2023/11/03 00:07:37;;;;;;;5.7;2.6;;;;;;;11;82.94;;;;;
2023/11/03 00:17:38;;;;;;;6.7;4.3;;;;;;;11.19;82.15;;;;;
2023/11/03 00:27:38;;;;;;;6.7;4.3;;;;;;;11.14;82.81;;;;;
2023/11/03 00:37:38;;;;;;;6.7;4.3;;;;;;;11.12;83;;;;;
2023/11/03 00:48:38;;;;;;;7.6;4.3;;;;;;;11.29;82.3;;;;;
2023/11/03 00:58:38;;;;;;;7.6;4.3;;;;;;;11.33;82.03;;;;;
2023/11/03 01:09:38;;;;;;;5.8;3;;;;;;;11.16;84.11;;;;;
2023/11/03 01:19:38;;;;;;;5.8;3;;;;;;;11.21;83.99;;;;;
2023/11/03 01:29:38;;;;;;;5.8;3;;;;;;;11.22;84.35;;;;;
2023/11/03 01:39:38;;;;;;;5.9;2.9;;;;;;;11.05;85.57;;;;;
2023/11/03 01:49:38;;;;;;;5.9;2.9;;;;;;;11.14;85.41;;;;;
2023/11/03 02:00:38;;;;;;;5.9;2.9;;;;;;;11.23;85.18;;;;;
2023/11/03 02:10:42;;;;;;;6.7;3.3;;;;;;;11.29;85.01;;;;;
2023/11/03 02:21:38;;;;;;;6.7;3.3;;;;;;;11.42;84;;;;;
2023/11/03 02:32:39;;;;;;;6.7;3.3;;;;;;;11.49;83.76;;;;;
2023/11/03 02:43:38;;;;;;;5.2;2.6;;;;;;;11.47;83.79;;;;;
2023/11/03 02:54:38;;;;;;;5.2;2.6;;;;;;;11.53;83.25;;;;;
2023/11/03 03:05:38;;;;;;;5.2;2.6;;;;;;;11.55;83.5;;;;;
2023/11/03 03:15:38;;;;;;;6.3;2.6;;;;;;;11.61;83.03;;;;;
2023/11/03 03:26:38;;;;;;;6.3;2.6;;;;;;;11.61;82.87;;;;;
2023/11/03 03:37:38;;;;;;;6.3;2.6;;;;;;;11.64;82.2;;;;;
2023/11/03 03:48:38;;;;;;;5.3;2.1;;;;;;;11.78;81.02;;;;;
2023/11/03 03:58:39;;;;;;;5.3;2.1;;;;;;;11.84;80.41;;;;;
2023/11/03 04:09:39;;;;;;;4.8;2.3;;;;;;;11.74;81.01;;;;;
2023/11/03 04:20:39;;;;;;;4.8;2.3;;;;;;;11.59;81.66;;;;;
2023/11/03 04:30:39;;;;;;;4.8;2.3;;;;;;;11.43;82.33;;;;;
2023/11/03 04:40:39;;;;;;;3.1;1.7;;;;;;;11.38;81.76;;;;;
2023/11/03 04:51:40;;;;;;;3.1;1.7;;;;;;;11.29;81.43;;;;;
2023/11/03 05:02:39;;;;;;;3.1;1.7;;;;;;;11.64;79.1;;;;;
2023/11/03 05:13:39;;;;;;;3.6;1.8;;;;;;;11.72;79.38;;;;;
2023/11/03 05:24:39;;;;;;;3.6;1.8;;;;;;;11.51;80.28;;;;;
2023/11/03 05:35:40;;;;;;;3.6;1.8;;;;;;;11.67;79.06;;;;;
2023/11/03 05:46:39;;;;;;;3.5;1.9;;;;;;;11.77;78.13;;;;;
2023/11/03 05:57:39;;;;;;;3.5;1.9;;;;;;;11.94;77.12;;;;;
2023/11/03 06:07:39;;;;;;;3.5;1.9;;;;;;;11.98;77.44;;;;;
2023/11/03 06:18:40;;;;;;;4.3;1.7;;;;;;;11.99;77.3;;;;;
2023/11/03 06:29:39;;;;;;;4.3;1.7;;;;;;;12.39;74.83;;;;;
2023/11/03 06:40:39;;;;;;;4.2;1.5;;;;;;;12.61;74.21;;;;;
2023/11/03 06:51:39;;;;;;;4.2;1.5;;;;;;;12.8;73.22;;;;;
2023/11/03 07:01:39;;;;;;;4.2;1.5;;;;;;;12.68;74.7;;;;;
2023/11/03 07:12:39;;;;;;;4.2;1.7;;;;;;;12.82;74.45;;;;;
2023/11/03 07:23:39;;;;;;;4.2;1.7;;;;;;;13.02;74.58;;;;;
2023/11/03 07:33:39;;;;;;;4.2;1.7;;;;;;;13.14;74.65;;;;;
2023/11/03 07:43:39;;;;;;;4.2;2;;;;;;;13.29;74.57;;;;;
2023/11/03 07:54:39;;;;;;;4.2;2;;;;;;;13.46;74.87;;;;;
2023/11/03 08:05:39;;;;;;;4.2;2;;;;;;;13.66;75.01;;;;;
2023/11/03 08:16:39;;;;;;;6.3;3.3;;;;;;;13.97;72.69;;;;;
2023/11/03 08:26:39;;;;;;;6.3;3.3;;;;;;;14.07;72.65;;;;;
2023/11/03 08:36:39;;;;;;;6.3;3.3;;;;;;;14.2;72.41;;;;;
2023/11/03 08:46:40;;;;;;;6.2;3.7;;;;;;;14.47;71.5;;;;;
2023/11/03 08:57:39;;;;;;;6.2;3.7;;;;;;;14.8;70.84;;;;;
2023/11/03 09:07:39;;;;;;;6.2;3.7;;;;;;;15.13;70.43;;;;;
2023/11/03 09:17:45;;;;;;;12.1;7.5;;;;;;;15.29;68.19;;;;;
2023/11/03 09:28:39;;;;;;;12.1;7.5;;;;;;;15.37;66.75;;;;;
2023/11/03 09:39:39;;;;;;;3.6;1.7;;;;;;;15.12;67.37;;;;;
2023/11/03 09:49:39;;;;;;;3.6;1.7;;;;;;;15.03;68.09;;;;;
2023/11/03 09:59:39;;;;;;;3.6;1.7;;;;;;;14.82;68.87;;;;;
2023/11/03 10:10:39;;;;;;;4.5;2.2;;;;;;;14.79;68.99;;;;;
2023/11/03 10:21:39;;;;;;;4.5;2.2;;;;;;;14.67;68.97;;;;;
2023/11/03 10:31:39;;;;;;;4.5;2.2;;;;;;;14.54;69.97;;;;;
2023/11/03 10:41:39;;;;;;;6.4;3.2;;;;;;;14.45;70.46;;;;;
2023/11/03 10:51:39;;;;;;;6.4;3.2;;;;;;;14.53;71.41;;;;;
2023/11/03 11:02:39;;;;;;;6.4;3.2;;;;;;;14.69;70.65;;;;;
2023/11/03 11:12:39;;;;;;;5.6;2.7;;;;;;;14.98;69.86;;;;;
2023/11/03 11:23:39;;;;;;;5.6;2.7;;;;;;;15.11;69.42;;;;;
2023/11/03 11:33:39;;;;;;;5.6;2.7;;;;;;;15.16;69.74;;;;;
2023/11/03 11:44:39;;;;;;;7.6;3.8;;;;;;;15.32;68.47;;;;;
2023/11/03 11:55:39;;;;;;;7.6;3.8;;;;;;;15.38;70.2;;;;;
2023/11/03 12:05:39;;;;;;;7.6;3.8;;;;;;;15.56;69.3;;;;;
2023/11/03 12:15:41;;;;;;;9.2;3.4;;;;;;;15.69;69.49;;;;;
2023/11/03 12:26:39;;;;;;;9.2;3.4;;;;;;;15.61;71.27;;;;;
2023/11/03 12:37:39;;;;;;;9.2;3.4;;;;;;;15.32;74.89;;;;;
2023/11/03 12:47:39;;;;;;;8.6;3.6;;;;;;;15.3;76.31;;;;;
2023/11/03 12:58:39;;;;;;;8.6;3.6;;;;;;;15.21;77.08;;;;;
2023/11/03 13:08:39;;;;;;;4.6;2.6;;;;;;;15.12;75.85;;;;;
2023/11/03 13:18:42;;;;;;;4.6;2.6;;;;;;;14.67;78.25;;;;;
2023/11/03 13:29:40;;;;;;;4.6;2.6;;;;;;;14.48;77.04;;;;;
2023/11/03 13:39:39;;;;;;;4.5;2.5;;;;;;;14.59;75.41;;;;;
2023/11/03 13:49:40;;;;;;;4.5;2.5;;;;;;;14.59;74.58;;;;;
2023/11/03 13:59:39;;;;;;;4.5;2.5;;;;;;;14.43;74.1;;;;;
2023/11/03 14:10:39;;;;;;;5.5;2.5;;;;;;;14.29;74.26;;;;;
2023/11/03 14:21:41;;;;;;;5.5;2.5;;;;;;;14.17;74.07;;;;;
2023/11/03 14:31:41;;;;;;;5.5;2.5;;;;;;;14.05;74.74;;;;;
2023/11/03 14:41:39;;;;;;;15.7;10.9;;;;;;;14.02;74.25;;;;;
2023/11/03 14:52:39;;;;;;;15.7;10.9;;;;;;;13.98;74.68;;;;;
2023/11/03 15:03:40;;;;;;;15.7;10.9;;;;;;;13.94;74.83;;;;;
2023/11/03 15:14:41;;;;;;;4.5;2.4;;;;;;;13.79;75.32;;;;;
2023/11/03 15:24:39;;;;;;;4.5;2.4;;;;;;;13.77;75.14;;;;;
2023/11/03 15:35:40;;;;;;;4.5;2.4;;;;;;;13.6;75.69;;;;;
2023/11/03 15:46:39;;;;;;;5.8;3.1;;;;;;;13.63;75.73;;;;;
2023/11/03 15:57:39;;;;;;;5.8;3.1;;;;;;;13.5;75.97;;;;;
2023/11/03 16:07:39;;;;;;;5.8;3.1;;;;;;;13.55;75.84;;;;;
2023/11/03 16:17:40;;;;;;;7.6;3.9;;;;;;;13.57;75.96;;;;;
2023/11/03 16:28:39;;;;;;;7.6;3.9;;;;;;;13.43;76.23;;;;;
2023/11/03 16:38:39;;;;;;;9;6.5;;;;;;;13.37;76.76;;;;;
2023/11/03 16:48:39;;;;;;;9;6.5;;;;;;;13.47;76.29;;;;;
2023/11/03 16:58:39;;;;;;;9;6.5;;;;;;;13.57;75.16;;;;;
2023/11/03 17:09:39;;;;;;;11.9;5.6;;;;;;;13.46;76.06;;;;;
2023/11/03 17:19:39;;;;;;;11.9;5.6;;;;;;;13.44;76.44;;;;;
2023/11/03 17:29:42;;;;;;;11.9;5.6;;;;;;;13.33;76.89;;;;;
2023/11/03 17:40:40;;;;;;;7.3;3.5;;;;;;;13.55;75.25;;;;;
2023/11/03 17:51:41;;;;;;;7.3;3.5;;;;;;;13.54;75.78;;;;;
2023/11/03 18:01:41;;;;;;;7.3;3.5;;;;;;;13.47;75.67;;;;;
2023/11/03 18:11:39;;;;;;;4.7;2.6;;;;;;;13.37;74.4;;;;;
2023/11/03 18:21:40;;;;;;;4.7;2.6;;;;;;;13.3;69.82;;;;;
2023/11/03 18:32:39;;;;;;;4.7;2.6;;;;;;;13.03;69.11;;;;;
2023/11/03 18:43:42;;;;;;;3;1.2;;;;;;;12.95;65.69;;;;;
2023/11/03 18:54:39;;;;;;;3;1.2;;;;;;;12.62;63.44;;;;;
2023/11/03 19:05:39;;;;;;;3;1.2;;;;;;;12.33;66.4;;;;;
2023/11/03 19:15:39;;;;;;;1.8;0.7;;;;;;;12.09;65.86;;;;;
2023/11/03 19:25:41;;;;;;;1.8;0.7;;;;;;;11.84;67;;;;;
2023/11/03 19:36:39;;;;;;;1.8;0.7;;;;;;;11.59;67.29;;;;;
2023/11/03 19:46:40;;;;;;;2;1;;;;;;;11.21;68.72;;;;;
2023/11/03 19:57:39;;;;;;;2;1;;;;;;;10.91;70.17;;;;;
2023/11/03 20:07:39;;;;;;;2;1;;;;;;;10.98;69.68;;;;;
2023/11/03 20:17:39;;;;;;;1.9;0.8;;;;;;;11.11;69.48;;;;;
2023/11/03 20:28:40;;;;;;;1.9;0.8;;;;;;;11.25;69.28;;;;;
2023/11/03 20:39:39;;;;;;;1.6;0.7;;;;;;;11.32;69.14;;;;;
2023/11/03 20:49:39;;;;;;;1.6;0.7;;;;;;;11.12;70.92;;;;;
2023/11/03 21:00:39;;;;;;;1.6;0.7;;;;;;;10.67;74.21;;;;;
2023/11/03 21:11:39;;;;;;;2.6;1.5;;;;;;;10.51;74.86;;;;;
2023/11/03 21:21:39;;;;;;;2.6;1.5;;;;;;;10.24;74.87;;;;;
2023/11/03 21:32:39;;;;;;;2.6;1.5;;;;;;;9.96;74.05;;;;;
2023/11/03 21:42:39;;;;;;;1.5;0.6;;;;;;;9.95;73.16;;;;;
2023/11/03 21:53:39;;;;;;;1.5;0.6;;;;;;;9.82;73.11;;;;;
2023/11/03 22:03:39;;;;;;;1.5;0.6;;;;;;;9.82;71.15;;;;;
2023/11/03 22:30:22;;;;;;;0.6;0.5;;;;;;;9.37;68.53;;;;;
2023/11/03 22:41:24;;;;;;;0.7;0.4;;;;;;;9.02;70.17;;;;;
2023/11/03 22:51:23;;;;;;;0.7;0.4;;;;;;;8.84;70.28;;;;;
2023/11/03 23:01:23;;;;;;;0.7;0.4;;;;;;;8.51;71.04;;;;;
2023/11/03 23:12:23;;;;;;;0.7;0.4;;;;;;;8.35;71.35;;;;;
2023/11/03 23:22:22;;;;;;;0.7;0.4;;;;;;;8.33;71.83;;;;;
2023/11/03 23:32:23;;;;;;;0.7;0.4;;;;;;;8.25;72.43;;;;;
2023/11/03 23:43:22;;;;;;;1.3;0.5;;;;;;;8.22;72.5;;;;;
2023/11/03 23:53:23;;;;;;;1.3;0.5;;;;;;;8.16;72.33;;;;;
